Página principal
METAR-TAF:

METAR-TAF

Aeroportos :

Daşoguz, Turquemenistão

latitude: 41-45-53N, longitude: 059-49-59E, altura: 83 m

Observação actual do tempo

O boletim foi feito há 33 minutos, às 11:00 UTC
Vento 10 kt de es-sudeste
Temperatura 22°C
Humidade 25%
Pressão 1018 hPa
Visibilidade 10 km ou mais
sem nuvens abaixo de 1500 metros e sem cumulonimbus

METAR: UTAT 231100Z 11010KT CAVOK 22/01 Q1018 R08/CLRD70 NOSIG

Hora: 16:33 (11:33 UTC)

Previsão

O boletim foi feito há 7 horas e 1 minutos, às 04:32 UTC
Previsão válida de 23 às 06 UTC a 24 às 06 UTC
Vento 12 kt de nordeste
Visibilidade 10 km ou mais
sem nuvens abaixo de 1500 metros e sem cumulonimbus
Temporariamente
de 23 às 06 UTC a 23 às 12 UTC
Vento 14 kt de este

TAF: UTAT 230432Z 2306/2406 05012KT CAVOK 530005 TEMPO 2306/2312 10014KT

Observações e previsões do tempo de mais de 4000 aeroportos (mensagens METAR e TAF).

As estações disponíveis são os pontos amarelos e vermelhos sobre o mapa.

Mova o rato sobre o mapa para ver o nome da estação.

Depois clique no ponto para visualizar as observações e previsões meteorológicas.

Para alterar o mapa : clique nos botões verdes com uma cruz preta para aumentar o zoom; no botão verde com uma pitada de zoom; ou nas setas verdes para mapas adjacentes.


METAR-TAF: